sensor_id;sensor_type;location;lat;lon;timestamp;P1;durP1;ratioP1;P2;durP2;ratioP2
16735;SDS011;17990;49.548;9.730;2023-04-23T00:00:03;1.87;;;1.53;;
16735;SDS011;17990;49.548;9.730;2023-04-23T00:02:32;3.10;;;1.87;;
16735;SDS011;17990;49.548;9.730;2023-04-23T00:05:01;4.27;;;1.80;;
16735;SDS011;17990;49.548;9.730;2023-04-23T00:07:30;2.83;;;1.90;;
16735;SDS011;17990;49.548;9.730;2023-04-23T00:09:59;2.87;;;2.00;;
16735;SDS011;17990;49.548;9.730;2023-04-23T00:12:29;4.37;;;2.07;;
16735;SDS011;17990;49.548;9.730;2023-04-23T00:14:57;2.57;;;1.90;;
16735;SDS011;17990;49.548;9.730;2023-04-23T00:17:25;4.63;;;1.90;;
16735;SDS011;17990;49.548;9.730;2023-04-23T00:19:52;4.90;;;2.03;;
16735;SDS011;17990;49.548;9.730;2023-04-23T00:22:19;3.20;;;1.90;;
16735;SDS011;17990;49.548;9.730;2023-04-23T00:24:46;2.90;;;1.80;;
16735;SDS011;17990;49.548;9.730;2023-04-23T00:27:13;4.87;;;1.93;;
16735;SDS011;17990;49.548;9.730;2023-04-23T00:29:43;3.40;;;1.80;;
16735;SDS011;17990;49.548;9.730;2023-04-23T00:32:11;2.77;;;2.00;;
16735;SDS011;17990;49.548;9.730;2023-04-23T00:34:38;5.07;;;2.10;;
16735;SDS011;17990;49.548;9.730;2023-04-23T00:37:06;4.33;;;2.10;;
16735;SDS011;17990;49.548;9.730;2023-04-23T00:39:33;4.03;;;1.97;;
16735;SDS011;17990;49.548;9.730;2023-04-23T00:42:01;3.07;;;1.73;;
16735;SDS011;17990;49.548;9.730;2023-04-23T00:44:35;3.20;;;2.00;;
16735;SDS011;17990;49.548;9.730;2023-04-23T00:47:04;4.13;;;2.20;;
16735;SDS011;17990;49.548;9.730;2023-04-23T00:49:32;4.40;;;2.40;;
16735;SDS011;17990;49.548;9.730;2023-04-23T00:51:59;4.37;;;2.40;;
16735;SDS011;17990;49.548;9.730;2023-04-23T00:54:26;2.83;;;2.13;;
16735;SDS011;17990;49.548;9.730;2023-04-23T00:56:54;4.93;;;2.03;;
16735;SDS011;17990;49.548;9.730;2023-04-23T00:59:22;4.73;;;2.30;;
16735;SDS011;17990;49.548;9.730;2023-04-23T01:01:49;3.10;;;1.90;;
16735;SDS011;17990;49.548;9.730;2023-04-23T01:04:18;3.40;;;2.40;;
16735;SDS011;17990;49.548;9.730;2023-04-23T01:06:46;5.33;;;2.60;;
16735;SDS011;17990;49.548;9.730;2023-04-23T01:09:14;4.03;;;1.90;;
16735;SDS011;17990;49.548;9.730;2023-04-23T01:11:42;3.30;;;2.27;;
16735;SDS011;17990;49.548;9.730;2023-04-23T01:14:10;3.70;;;2.23;;
16735;SDS011;17990;49.548;9.730;2023-04-23T01:16:37;4.23;;;2.00;;
16735;SDS011;17990;49.548;9.730;2023-04-23T01:19:05;4.43;;;2.57;;
16735;SDS011;17990;49.548;9.730;2023-04-23T01:21:34;4.20;;;1.97;;
16735;SDS011;17990;49.548;9.730;2023-04-23T01:24:04;4.27;;;2.30;;
16735;SDS011;17990;49.548;9.730;2023-04-23T01:26:32;2.97;;;2.20;;
16735;SDS011;17990;49.548;9.730;2023-04-23T01:29:00;5.90;;;2.67;;
16735;SDS011;17990;49.548;9.730;2023-04-23T01:31:27;2.83;;;2.33;;
16735;SDS011;17990;49.548;9.730;2023-04-23T01:33:55;2.93;;;2.23;;
16735;SDS011;17990;49.548;9.730;2023-04-23T01:36:23;3.70;;;2.40;;
16735;SDS011;17990;49.548;9.730;2023-04-23T01:38:51;4.07;;;2.23;;
16735;SDS011;17990;49.548;9.730;2023-04-23T01:41:19;4.53;;;2.80;;
16735;SDS011;17990;49.548;9.730;2023-04-23T01:43:47;7.17;;;3.87;;
16735;SDS011;17990;49.548;9.730;2023-04-23T01:46:14;7.33;;;3.93;;
16735;SDS011;17990;49.548;9.730;2023-04-23T01:48:41;6.50;;;3.80;;
16735;SDS011;17990;49.548;9.730;2023-04-23T01:51:09;4.27;;;2.97;;
16735;SDS011;17990;49.548;9.730;2023-04-23T01:53:36;5.00;;;3.33;;
16735;SDS011;17990;49.548;9.730;2023-04-23T01:56:03;6.50;;;3.00;;
16735;SDS011;17990;49.548;9.730;2023-04-23T01:58:32;4.67;;;2.80;;
16735;SDS011;17990;49.548;9.730;2023-04-23T02:01:00;5.03;;;2.97;;
16735;SDS011;17990;49.548;9.730;2023-04-23T02:03:27;4.90;;;2.57;;
16735;SDS011;17990;49.548;9.730;2023-04-23T02:05:57;5.50;;;3.27;;
16735;SDS011;17990;49.548;9.730;2023-04-23T02:08:25;5.43;;;3.53;;
16735;SDS011;17990;49.548;9.730;2023-04-23T02:10:52;4.93;;;2.83;;
16735;SDS011;17990;49.548;9.730;2023-04-23T02:13:20;4.53;;;2.70;;
16735;SDS011;17990;49.548;9.730;2023-04-23T02:15:48;4.33;;;2.33;;
16735;SDS011;17990;49.548;9.730;2023-04-23T02:18:15;5.00;;;3.33;;
16735;SDS011;17990;49.548;9.730;2023-04-23T02:20:42;5.97;;;3.13;;
16735;SDS011;17990;49.548;9.730;2023-04-23T02:23:10;6.93;;;3.63;;
16735;SDS011;17990;49.548;9.730;2023-04-23T02:25:37;5.77;;;3.40;;
16735;SDS011;17990;49.548;9.730;2023-04-23T02:28:05;4.90;;;2.87;;
16735;SDS011;17990;49.548;9.730;2023-04-23T02:30:32;4.87;;;3.20;;
16735;SDS011;17990;49.548;9.730;2023-04-23T02:33:01;4.80;;;3.40;;
16735;SDS011;17990;49.548;9.730;2023-04-23T02:35:29;4.40;;;3.30;;
16735;SDS011;17990;49.548;9.730;2023-04-23T02:37:56;4.80;;;3.17;;
16735;SDS011;17990;49.548;9.730;2023-04-23T02:40:23;4.40;;;3.63;;
16735;SDS011;17990;49.548;9.730;2023-04-23T02:42:50;5.97;;;3.83;;
16735;SDS011;17990;49.548;9.730;2023-04-23T02:45:17;5.37;;;3.67;;
16735;SDS011;17990;49.548;9.730;2023-04-23T02:47:45;5.13;;;4.30;;
16735;SDS011;17990;49.548;9.730;2023-04-23T02:50:13;6.07;;;3.97;;
16735;SDS011;17990;49.548;9.730;2023-04-23T02:52:41;4.70;;;3.80;;
16735;SDS011;17990;49.548;9.730;2023-04-23T02:55:08;4.80;;;4.30;;
16735;SDS011;17990;49.548;9.730;2023-04-23T02:57:35;6.07;;;4.77;;
16735;SDS011;17990;49.548;9.730;2023-04-23T03:00:03;5.00;;;3.97;;
16735;SDS011;17990;49.548;9.730;2023-04-23T03:02:32;6.07;;;4.30;;
16735;SDS011;17990;49.548;9.730;2023-04-23T03:04:59;4.60;;;3.87;;
16735;SDS011;17990;49.548;9.730;2023-04-23T03:07:28;6.03;;;4.13;;
16735;SDS011;17990;49.548;9.730;2023-04-23T03:09:55;5.27;;;4.23;;
16735;SDS011;17990;49.548;9.730;2023-04-23T03:12:22;6.77;;;4.13;;
16735;SDS011;17990;49.548;9.730;2023-04-23T03:14:50;6.13;;;3.97;;
16735;SDS011;17990;49.548;9.730;2023-04-23T03:17:17;4.63;;;4.03;;
16735;SDS011;17990;49.548;9.730;2023-04-23T03:19:44;5.77;;;4.27;;
16735;SDS011;17990;49.548;9.730;2023-04-23T03:22:11;5.73;;;3.97;;
16735;SDS011;17990;49.548;9.730;2023-04-23T03:24:40;4.73;;;3.63;;
16735;SDS011;17990;49.548;9.730;2023-04-23T03:27:07;4.97;;;3.80;;
16735;SDS011;17990;49.548;9.730;2023-04-23T03:29:34;5.30;;;3.47;;
16735;SDS011;17990;49.548;9.730;2023-04-23T03:32:01;4.87;;;3.40;;
16735;SDS011;17990;49.548;9.730;2023-04-23T03:34:29;4.20;;;3.80;;
16735;SDS011;17990;49.548;9.730;2023-04-23T03:36:57;4.60;;;3.97;;
16735;SDS011;17990;49.548;9.730;2023-04-23T03:39:24;3.93;;;3.33;;
16735;SDS011;17990;49.548;9.730;2023-04-23T03:41:52;3.67;;;3.37;;
16735;SDS011;17990;49.548;9.730;2023-04-23T03:44:20;3.93;;;3.40;;
16735;SDS011;17990;49.548;9.730;2023-04-23T03:46:47;5.80;;;3.87;;
16735;SDS011;17990;49.548;9.730;2023-04-23T03:49:16;4.50;;;3.27;;
16735;SDS011;17990;49.548;9.730;2023-04-23T03:51:43;4.27;;;3.13;;
16735;SDS011;17990;49.548;9.730;2023-04-23T03:54:10;4.50;;;3.20;;
16735;SDS011;17990;49.548;9.730;2023-04-23T03:56:37;3.57;;;3.13;;
16735;SDS011;17990;49.548;9.730;2023-04-23T03:59:06;4.70;;;3.33;;
16735;SDS011;17990;49.548;9.730;2023-04-23T04:01:33;4.90;;;3.23;;
16735;SDS011;17990;49.548;9.730;2023-04-23T04:04:01;4.57;;;2.87;;
16735;SDS011;17990;49.548;9.730;2023-04-23T04:06:28;4.60;;;3.40;;
16735;SDS011;17990;49.548;9.730;2023-04-23T04:08:55;4.07;;;2.93;;
16735;SDS011;17990;49.548;9.730;2023-04-23T04:11:22;3.50;;;2.73;;
16735;SDS011;17990;49.548;9.730;2023-04-23T04:13:50;4.17;;;2.90;;
16735;SDS011;17990;49.548;9.730;2023-04-23T04:16:18;2.87;;;2.57;;
16735;SDS011;17990;49.548;9.730;2023-04-23T04:18:45;3.13;;;2.83;;
16735;SDS011;17990;49.548;9.730;2023-04-23T04:21:12;2.87;;;2.40;;
16735;SDS011;17990;49.548;9.730;2023-04-23T04:23:43;3.17;;;2.70;;
16735;SDS011;17990;49.548;9.730;2023-04-23T04:26:10;3.63;;;2.63;;
16735;SDS011;17990;49.548;9.730;2023-04-23T04:28:38;3.03;;;2.53;;
16735;SDS011;17990;49.548;9.730;2023-04-23T04:31:05;3.47;;;2.97;;
16735;SDS011;17990;49.548;9.730;2023-04-23T04:33:35;3.40;;;3.10;;
16735;SDS011;17990;49.548;9.730;2023-04-23T04:36:03;4.60;;;2.73;;
16735;SDS011;17990;49.548;9.730;2023-04-23T04:38:33;3.50;;;2.60;;
16735;SDS011;17990;49.548;9.730;2023-04-23T04:41:03;4.77;;;2.93;;
16735;SDS011;17990;49.548;9.730;2023-04-23T04:43:30;4.23;;;2.70;;
16735;SDS011;17990;49.548;9.730;2023-04-23T04:45:58;3.20;;;2.90;;
16735;SDS011;17990;49.548;9.730;2023-04-23T04:48:25;4.37;;;3.00;;
16735;SDS011;17990;49.548;9.730;2023-04-23T04:50:54;7.33;;;3.03;;
16735;SDS011;17990;49.548;9.730;2023-04-23T04:53:21;3.60;;;2.93;;
16735;SDS011;17990;49.548;9.730;2023-04-23T04:55:48;4.03;;;3.40;;
16735;SDS011;17990;49.548;9.730;2023-04-23T04:58:15;4.80;;;2.77;;
16735;SDS011;17990;49.548;9.730;2023-04-23T05:00:43;3.13;;;2.83;;
16735;SDS011;17990;49.548;9.730;2023-04-23T05:03:10;4.23;;;3.23;;
16735;SDS011;17990;49.548;9.730;2023-04-23T05:05:37;5.83;;;3.13;;
16735;SDS011;17990;49.548;9.730;2023-04-23T05:08:06;4.00;;;3.00;;
16735;SDS011;17990;49.548;9.730;2023-04-23T05:10:33;3.50;;;3.17;;
16735;SDS011;17990;49.548;9.730;2023-04-23T05:13:00;4.77;;;3.40;;
16735;SDS011;17990;49.548;9.730;2023-04-23T05:15:28;4.07;;;3.20;;
16735;SDS011;17990;49.548;9.730;2023-04-23T05:17:55;4.93;;;3.40;;
16735;SDS011;17990;49.548;9.730;2023-04-23T05:20:22;3.50;;;2.97;;
16735;SDS011;17990;49.548;9.730;2023-04-23T05:22:50;4.37;;;3.37;;
16735;SDS011;17990;49.548;9.730;2023-04-23T05:25:18;3.80;;;2.90;;
16735;SDS011;17990;49.548;9.730;2023-04-23T05:27:45;3.77;;;3.07;;
16735;SDS011;17990;49.548;9.730;2023-04-23T05:30:13;4.27;;;3.17;;
16735;SDS011;17990;49.548;9.730;2023-04-23T05:32:40;4.23;;;3.07;;
16735;SDS011;17990;49.548;9.730;2023-04-23T05:35:07;5.33;;;3.17;;
16735;SDS011;17990;49.548;9.730;2023-04-23T05:37:34;3.63;;;2.93;;
16735;SDS011;17990;49.548;9.730;2023-04-23T05:40:02;5.00;;;2.97;;
16735;SDS011;17990;49.548;9.730;2023-04-23T05:42:31;4.60;;;3.03;;
16735;SDS011;17990;49.548;9.730;2023-04-23T05:45:00;3.80;;;2.97;;
16735;SDS011;17990;49.548;9.730;2023-04-23T05:47:27;6.27;;;3.00;;
16735;SDS011;17990;49.548;9.730;2023-04-23T05:49:55;3.73;;;3.40;;
16735;SDS011;17990;49.548;9.730;2023-04-23T05:52:22;3.73;;;3.30;;
16735;SDS011;17990;49.548;9.730;2023-04-23T05:54:50;4.13;;;3.30;;
16735;SDS011;17990;49.548;9.730;2023-04-23T05:57:17;4.43;;;3.20;;
16735;SDS011;17990;49.548;9.730;2023-04-23T05:59:45;4.60;;;2.90;;
16735;SDS011;17990;49.548;9.730;2023-04-23T06:02:13;5.73;;;3.20;;
16735;SDS011;17990;49.548;9.730;2023-04-23T06:04:40;9.83;;;3.40;;
16735;SDS011;17990;49.548;9.730;2023-04-23T06:07:07;3.47;;;3.10;;
16735;SDS011;17990;49.548;9.730;2023-04-23T06:09:36;4.27;;;3.47;;
16735;SDS011;17990;49.548;9.730;2023-04-23T06:12:03;3.63;;;3.07;;
16735;SDS011;17990;49.548;9.730;2023-04-23T06:14:30;5.67;;;3.00;;
16735;SDS011;17990;49.548;9.730;2023-04-23T06:16:59;4.17;;;2.47;;
16735;SDS011;17990;49.548;9.730;2023-04-23T06:19:26;4.53;;;2.67;;
16735;SDS011;17990;49.548;9.730;2023-04-23T06:21:53;2.87;;;2.50;;
16735;SDS011;17990;49.548;9.730;2023-04-23T06:24:20;5.43;;;2.60;;
16735;SDS011;17990;49.548;9.730;2023-04-23T06:26:48;3.73;;;2.13;;
16735;SDS011;17990;49.548;9.730;2023-04-23T06:29:15;2.93;;;1.63;;
16735;SDS011;17990;49.548;9.730;2023-04-23T06:31:42;1.67;;;1.50;;
16735;SDS011;17990;49.548;9.730;2023-04-23T06:34:10;2.60;;;1.70;;
16735;SDS011;17990;49.548;9.730;2023-04-23T06:36:38;3.53;;;2.03;;
16735;SDS011;17990;49.548;9.730;2023-04-23T06:39:05;4.67;;;1.50;;
16735;SDS011;17990;49.548;9.730;2023-04-23T06:41:32;5.23;;;1.60;;
16735;SDS011;17990;49.548;9.730;2023-04-23T06:43:59;1.70;;;1.25;;
16735;SDS011;17990;49.548;9.730;2023-04-23T06:46:26;4.22;;;1.45;;
16735;SDS011;17990;49.548;9.730;2023-04-23T06:48:54;1.80;;;1.40;;
16735;SDS011;17990;49.548;9.730;2023-04-23T06:51:23;3.90;;;1.63;;
16735;SDS011;17990;49.548;9.730;2023-04-23T06:53:51;3.40;;;1.30;;
16735;SDS011;17990;49.548;9.730;2023-04-23T06:56:19;3.47;;;1.30;;
16735;SDS011;17990;49.548;9.730;2023-04-23T06:58:46;1.95;;;1.40;;
16735;SDS011;17990;49.548;9.730;2023-04-23T07:01:13;1.45;;;1.10;;
16735;SDS011;17990;49.548;9.730;2023-04-23T07:03:40;3.05;;;1.33;;
16735;SDS011;17990;49.548;9.730;2023-04-23T07:06:08;1.85;;;1.40;;
16735;SDS011;17990;49.548;9.730;2023-04-23T07:08:36;1.83;;;1.48;;
16735;SDS011;17990;49.548;9.730;2023-04-23T07:11:04;1.67;;;1.57;;
16735;SDS011;17990;49.548;9.730;2023-04-23T07:13:31;3.07;;;1.40;;
16735;SDS011;17990;49.548;9.730;2023-04-23T07:15:58;2.00;;;1.43;;
16735;SDS011;17990;49.548;9.730;2023-04-23T07:18:26;1.83;;;1.50;;
16735;SDS011;17990;49.548;9.730;2023-04-23T07:20:53;1.77;;;1.20;;
16735;SDS011;17990;49.548;9.730;2023-04-23T07:23:20;1.63;;;1.40;;
16735;SDS011;17990;49.548;9.730;2023-04-23T07:25:49;3.70;;;1.50;;
16735;SDS011;17990;49.548;9.730;2023-04-23T07:28:16;1.73;;;1.30;;
16735;SDS011;17990;49.548;9.730;2023-04-23T07:30:44;4.33;;;1.30;;
16735;SDS011;17990;49.548;9.730;2023-04-23T07:33:11;4.17;;;2.00;;
16735;SDS011;17990;49.548;9.730;2023-04-23T07:35:38;2.97;;;2.10;;
16735;SDS011;17990;49.548;9.730;2023-04-23T07:38:05;2.00;;;1.60;;
16735;SDS011;17990;49.548;9.730;2023-04-23T07:40:33;2.53;;;1.80;;
16735;SDS011;17990;49.548;9.730;2023-04-23T07:43:02;1.77;;;1.50;;
16735;SDS011;17990;49.548;9.730;2023-04-23T07:45:29;3.30;;;1.23;;
16735;SDS011;17990;49.548;9.730;2023-04-23T07:47:56;2.00;;;1.60;;
16735;SDS011;17990;49.548;9.730;2023-04-23T07:50:25;1.97;;;1.30;;
16735;SDS011;17990;49.548;9.730;2023-04-23T07:52:52;3.27;;;1.83;;
16735;SDS011;17990;49.548;9.730;2023-04-23T07:55:20;2.17;;;1.73;;
16735;SDS011;17990;49.548;9.730;2023-04-23T07:57:47;3.20;;;1.57;;
16735;SDS011;17990;49.548;9.730;2023-04-23T08:00:16;8.83;;;2.23;;
16735;SDS011;17990;49.548;9.730;2023-04-23T08:02:43;3.87;;;1.90;;
16735;SDS011;17990;49.548;9.730;2023-04-23T08:05:10;1.93;;;1.50;;
16735;SDS011;17990;49.548;9.730;2023-04-23T08:07:38;1.90;;;1.50;;
16735;SDS011;17990;49.548;9.730;2023-04-23T08:10:05;4.87;;;1.90;;
16735;SDS011;17990;49.548;9.730;2023-04-23T08:12:33;2.13;;;1.40;;
16735;SDS011;17990;49.548;9.730;2023-04-23T08:15:00;1.93;;;1.40;;
16735;SDS011;17990;49.548;9.730;2023-04-23T08:17:29;3.20;;;1.27;;
16735;SDS011;17990;49.548;9.730;2023-04-23T08:19:56;2.10;;;1.30;;
16735;SDS011;17990;49.548;9.730;2023-04-23T08:22:24;2.37;;;1.50;;
16735;SDS011;17990;49.548;9.730;2023-04-23T08:24:51;2.33;;;1.30;;
16735;SDS011;17990;49.548;9.730;2023-04-23T08:27:18;3.43;;;1.17;;
16735;SDS011;17990;49.548;9.730;2023-04-23T08:29:46;3.57;;;1.20;;
16735;SDS011;17990;49.548;9.730;2023-04-23T08:32:13;2.43;;;1.40;;
16735;SDS011;17990;49.548;9.730;2023-04-23T08:34:42;1.55;;;1.30;;
16735;SDS011;17990;49.548;9.730;2023-04-23T08:37:09;1.87;;;1.03;;
16735;SDS011;17990;49.548;9.730;2023-04-23T08:39:36;2.07;;;1.10;;
16735;SDS011;17990;49.548;9.730;2023-04-23T08:42:04;2.67;;;1.20;;
16735;SDS011;17990;49.548;9.730;2023-04-23T08:44:36;4.00;;;1.30;;
16735;SDS011;17990;49.548;9.730;2023-04-23T08:47:05;2.78;;;1.30;;
16735;SDS011;17990;49.548;9.730;2023-04-23T08:49:33;2.13;;;0.90;;
16735;SDS011;17990;49.548;9.730;2023-04-23T08:52:04;1.38;;;1.00;;
16735;SDS011;17990;49.548;9.730;2023-04-23T08:54:40;1.35;;;1.17;;
16735;SDS011;17990;49.548;9.730;2023-04-23T08:57:07;1.05;;;0.90;;
16735;SDS011;17990;49.548;9.730;2023-04-23T08:59:34;1.88;;;1.50;;
16735;SDS011;17990;49.548;9.730;2023-04-23T09:02:02;1.42;;;1.08;;
16735;SDS011;17990;49.548;9.730;2023-04-23T09:04:33;1.65;;;1.00;;
16735;SDS011;17990;49.548;9.730;2023-04-23T09:07:02;1.25;;;1.10;;
16735;SDS011;17990;49.548;9.730;2023-04-23T09:09:32;1.20;;;1.10;;
16735;SDS011;17990;49.548;9.730;2023-04-23T09:11:59;2.42;;;1.73;;
16735;SDS011;17990;49.548;9.730;2023-04-23T09:14:26;1.63;;;1.13;;
16735;SDS011;17990;49.548;9.730;2023-04-23T09:16:53;1.10;;;1.00;;
16735;SDS011;17990;49.548;9.730;2023-04-23T09:19:21;6.75;;;1.00;;
16735;SDS011;17990;49.548;9.730;2023-04-23T09:21:49;1.63;;;1.10;;
16735;SDS011;17990;49.548;9.730;2023-04-23T09:24:18;2.08;;;1.20;;
16735;SDS011;17990;49.548;9.730;2023-04-23T09:26:48;2.28;;;1.13;;
16735;SDS011;17990;49.548;9.730;2023-04-23T09:29:17;2.85;;;1.17;;
16735;SDS011;17990;49.548;9.730;2023-04-23T09:31:47;1.27;;;0.85;;
16735;SDS011;17990;49.548;9.730;2023-04-23T09:34:15;6.97;;;1.17;;
16735;SDS011;17990;49.548;9.730;2023-04-23T09:36:43;2.63;;;0.90;;
16735;SDS011;17990;49.548;9.730;2023-04-23T09:39:11;1.67;;;0.80;;
16735;SDS011;17990;49.548;9.730;2023-04-23T09:41:40;0.98;;;0.77;;
16735;SDS011;17990;49.548;9.730;2023-04-23T09:44:07;1.65;;;1.00;;
16735;SDS011;17990;49.548;9.730;2023-04-23T09:46:37;1.40;;;0.90;;
16735;SDS011;17990;49.548;9.730;2023-04-23T09:49:06;1.73;;;1.00;;
16735;SDS011;17990;49.548;9.730;2023-04-23T09:51:34;1.55;;;1.10;;
16735;SDS011;17990;49.548;9.730;2023-04-23T09:54:03;1.67;;;0.90;;
16735;SDS011;17990;49.548;9.730;2023-04-23T09:56:36;1.20;;;0.90;;
16735;SDS011;17990;49.548;9.730;2023-04-23T09:59:06;7.75;;;5.00;;
16735;SDS011;17990;49.548;9.730;2023-04-23T10:01:45;3.28;;;1.60;;
16735;SDS011;17990;49.548;9.730;2023-04-23T10:06:42;1.30;;;0.80;;
16735;SDS011;17990;49.548;9.730;2023-04-23T10:09:10;2.33;;;1.10;;
16735;SDS011;17990;49.548;9.730;2023-04-23T10:11:37;0.93;;;0.77;;
16735;SDS011;17990;49.548;9.730;2023-04-23T10:14:06;3.13;;;1.02;;
16735;SDS011;17990;49.548;9.730;2023-04-23T10:16:34;1.52;;;0.80;;
16735;SDS011;17990;49.548;9.730;2023-04-23T10:19:02;1.48;;;0.93;;
16735;SDS011;17990;49.548;9.730;2023-04-23T10:21:30;0.60;;;0.60;;
16735;SDS011;17990;49.548;9.730;2023-04-23T10:23:58;0.90;;;0.80;;
16735;SDS011;17990;49.548;9.730;2023-04-23T10:26:27;1.38;;;1.02;;
16735;SDS011;17990;49.548;9.730;2023-04-23T10:28:57;1.00;;;0.88;;
16735;SDS011;17990;49.548;9.730;2023-04-23T10:31:27;1.50;;;0.90;;
16735;SDS011;17990;49.548;9.730;2023-04-23T10:33:55;1.40;;;1.00;;
16735;SDS011;17990;49.548;9.730;2023-04-23T10:36:23;1.00;;;0.88;;
16735;SDS011;17990;49.548;9.730;2023-04-23T10:38:52;1.67;;;0.98;;
16735;SDS011;17990;49.548;9.730;2023-04-23T10:41:20;1.08;;;0.68;;
16735;SDS011;17990;49.548;9.730;2023-04-23T10:43:48;2.72;;;1.02;;
16735;SDS011;17990;49.548;9.730;2023-04-23T10:46:28;1.05;;;0.80;;
16735;SDS011;17990;49.548;9.730;2023-04-23T10:49:05;2.42;;;1.00;;
16735;SDS011;17990;49.548;9.730;2023-04-23T10:51:33;1.67;;;1.17;;
16735;SDS011;17990;49.548;9.730;2023-04-23T10:54:01;2.22;;;0.80;;
16735;SDS011;17990;49.548;9.730;2023-04-23T10:56:29;4.32;;;1.02;;
16735;SDS011;17990;49.548;9.730;2023-04-23T10:58:57;2.03;;;0.90;;
16735;SDS011;17990;49.548;9.730;2023-04-23T11:01:24;1.80;;;0.90;;
16735;SDS011;17990;49.548;9.730;2023-04-23T11:03:55;1.00;;;0.75;;
16735;SDS011;17990;49.548;9.730;2023-04-23T11:09:27;1.00;;;0.70;;
16735;SDS011;17990;49.548;9.730;2023-04-23T11:12:04;1.52;;;0.75;;
16735;SDS011;17990;49.548;9.730;2023-04-23T11:14:34;1.70;;;1.08;;
16735;SDS011;17990;49.548;9.730;2023-04-23T11:17:03;2.53;;;0.90;;
16735;SDS011;17990;49.548;9.730;2023-04-23T11:19:33;3.08;;;0.88;;
16735;SDS011;17990;49.548;9.730;2023-04-23T11:22:02;2.13;;;0.75;;
16735;SDS011;17990;49.548;9.730;2023-04-23T11:24:31;2.67;;;1.00;;
16735;SDS011;17990;49.548;9.730;2023-04-23T11:27:01;1.83;;;0.98;;
16735;SDS011;17990;49.548;9.730;2023-04-23T11:29:31;1.83;;;0.70;;
16735;SDS011;17990;49.548;9.730;2023-04-23T11:31:58;2.13;;;0.88;;
16735;SDS011;17990;49.548;9.730;2023-04-23T11:34:28;5.82;;;1.10;;
16735;SDS011;17990;49.548;9.730;2023-04-23T11:36:55;3.00;;;0.93;;
16735;SDS011;17990;49.548;9.730;2023-04-23T11:39:25;2.60;;;0.75;;
16735;SDS011;17990;49.548;9.730;2023-04-23T11:41:52;1.13;;;0.70;;
16735;SDS011;17990;49.548;9.730;2023-04-23T11:44:19;1.55;;;0.70;;
16735;SDS011;17990;49.548;9.730;2023-04-23T11:46:47;1.25;;;0.70;;
16735;SDS011;17990;49.548;9.730;2023-04-23T11:49:15;1.58;;;0.85;;
16735;SDS011;17990;49.548;9.730;2023-04-23T11:51:45;1.02;;;0.70;;
16735;SDS011;17990;49.548;9.730;2023-04-23T11:54:12;1.33;;;0.85;;
16735;SDS011;17990;49.548;9.730;2023-04-23T11:56:40;0.82;;;0.70;;
16735;SDS011;17990;49.548;9.730;2023-04-23T11:59:07;1.00;;;0.77;;
16735;SDS011;17990;49.548;9.730;2023-04-23T12:01:38;2.53;;;0.80;;
16735;SDS011;17990;49.548;9.730;2023-04-23T12:04:10;2.13;;;0.90;;
16735;SDS011;17990;49.548;9.730;2023-04-23T12:06:41;1.45;;;1.10;;
16735;SDS011;17990;49.548;9.730;2023-04-23T12:09:11;2.33;;;1.00;;
16735;SDS011;17990;49.548;9.730;2023-04-23T12:11:40;0.75;;;0.63;;
16735;SDS011;17990;49.548;9.730;2023-04-23T12:14:08;2.65;;;0.75;;
16735;SDS011;17990;49.548;9.730;2023-04-23T12:16:38;2.30;;;1.00;;
16735;SDS011;17990;49.548;9.730;2023-04-23T12:19:06;0.90;;;0.85;;
16735;SDS011;17990;49.548;9.730;2023-04-23T12:21:34;2.30;;;0.80;;
16735;SDS011;17990;49.548;9.730;2023-04-23T12:24:15;0.85;;;0.73;;
16735;SDS011;17990;49.548;9.730;2023-04-23T12:26:42;1.15;;;0.73;;
16735;SDS011;17990;49.548;9.730;2023-04-23T12:29:11;2.60;;;0.60;;
16735;SDS011;17990;49.548;9.730;2023-04-23T12:31:39;1.38;;;0.70;;
16735;SDS011;17990;49.548;9.730;2023-04-23T12:34:09;0.95;;;0.63;;
16735;SDS011;17990;49.548;9.730;2023-04-23T12:36:38;1.25;;;0.80;;
16735;SDS011;17990;49.548;9.730;2023-04-23T12:39:23;2.30;;;0.73;;
16735;SDS011;17990;49.548;9.730;2023-04-23T12:41:51;1.25;;;0.60;;
16735;SDS011;17990;49.548;9.730;2023-04-23T12:44:20;2.08;;;0.60;;
16735;SDS011;17990;49.548;9.730;2023-04-23T12:46:48;2.13;;;0.70;;
16735;SDS011;17990;49.548;9.730;2023-04-23T12:49:19;2.80;;;1.20;;
16735;SDS011;17990;49.548;9.730;2023-04-23T12:51:46;2.97;;;0.80;;
16735;SDS011;17990;49.548;9.730;2023-04-23T12:54:14;1.20;;;1.00;;
16735;SDS011;17990;49.548;9.730;2023-04-23T12:56:42;0.60;;;0.60;;
16735;SDS011;17990;49.548;9.730;2023-04-23T12:59:09;1.60;;;0.90;;
16735;SDS011;17990;49.548;9.730;2023-04-23T13:01:37;2.33;;;0.63;;
16735;SDS011;17990;49.548;9.730;2023-04-23T13:04:04;0.70;;;0.50;;
16735;SDS011;17990;49.548;9.730;2023-04-23T13:06:31;1.00;;;0.60;;
16735;SDS011;17990;49.548;9.730;2023-04-23T13:08:59;1.23;;;0.65;;
16735;SDS011;17990;49.548;9.730;2023-04-23T13:11:29;1.17;;;0.55;;
16735;SDS011;17990;49.548;9.730;2023-04-23T13:13:57;2.30;;;0.75;;
16735;SDS011;17990;49.548;9.730;2023-04-23T13:16:25;2.28;;;1.08;;
16735;SDS011;17990;49.548;9.730;2023-04-23T13:18:52;1.95;;;0.70;;
16735;SDS011;17990;49.548;9.730;2023-04-23T13:21:19;0.68;;;0.60;;
16735;SDS011;17990;49.548;9.730;2023-04-23T13:23:46;0.90;;;0.50;;
16735;SDS011;17990;49.548;9.730;2023-04-23T13:26:14;0.95;;;0.70;;
16735;SDS011;17990;49.548;9.730;2023-04-23T13:28:42;0.45;;;0.40;;
16735;SDS011;17990;49.548;9.730;2023-04-23T13:31:11;3.10;;;0.80;;
16735;SDS011;17990;49.548;9.730;2023-04-23T13:33:40;0.80;;;0.60;;
16735;SDS011;17990;49.548;9.730;2023-04-23T13:36:10;0.70;;;0.50;;
16735;SDS011;17990;49.548;9.730;2023-04-23T13:38:37;0.95;;;0.60;;
16735;SDS011;17990;49.548;9.730;2023-04-23T13:41:04;3.17;;;0.68;;
16735;SDS011;17990;49.548;9.730;2023-04-23T13:43:32;0.90;;;0.60;;
16735;SDS011;17990;49.548;9.730;2023-04-23T13:45:59;1.13;;;0.50;;
16735;SDS011;17990;49.548;9.730;2023-04-23T13:48:27;1.80;;;0.80;;
16735;SDS011;17990;49.548;9.730;2023-04-23T13:50:56;1.25;;;0.95;;
16735;SDS011;17990;49.548;9.730;2023-04-23T13:53:23;1.38;;;0.90;;
16735;SDS011;17990;49.548;9.730;2023-04-23T13:55:51;1.77;;;1.05;;
16735;SDS011;17990;49.548;9.730;2023-04-23T13:58:19;1.75;;;1.20;;
16735;SDS011;17990;49.548;9.730;2023-04-23T14:00:47;1.02;;;0.75;;
16735;SDS011;17990;49.548;9.730;2023-04-23T14:03:14;1.90;;;1.30;;
16735;SDS011;17990;49.548;9.730;2023-04-23T14:05:43;1.23;;;0.80;;
16735;SDS011;17990;49.548;9.730;2023-04-23T14:08:10;3.17;;;0.65;;
16735;SDS011;17990;49.548;9.730;2023-04-23T14:10:37;1.63;;;1.13;;
16735;SDS011;17990;49.548;9.730;2023-04-23T14:13:05;2.15;;;1.05;;
16735;SDS011;17990;49.548;9.730;2023-04-23T14:15:32;1.13;;;0.90;;
16735;SDS011;17990;49.548;9.730;2023-04-23T14:18:00;2.85;;;0.90;;
16735;SDS011;17990;49.548;9.730;2023-04-23T14:20:27;0.77;;;0.60;;
16735;SDS011;17990;49.548;9.730;2023-04-23T14:22:57;1.17;;;0.65;;
16735;SDS011;17990;49.548;9.730;2023-04-23T14:25:28;1.27;;;0.98;;
16735;SDS011;17990;49.548;9.730;2023-04-23T14:28:08;2.42;;;1.13;;
16735;SDS011;17990;49.548;9.730;2023-04-23T14:30:49;1.90;;;1.45;;
16735;SDS011;17990;49.548;9.730;2023-04-23T14:33:25;2.05;;;0.90;;
16735;SDS011;17990;49.548;9.730;2023-04-23T14:35:53;1.02;;;0.70;;
16735;SDS011;17990;49.548;9.730;2023-04-23T14:38:21;1.33;;;0.65;;
16735;SDS011;17990;49.548;9.730;2023-04-23T14:40:50;0.70;;;0.50;;
16735;SDS011;17990;49.548;9.730;2023-04-23T14:43:17;0.80;;;0.60;;
16735;SDS011;17990;49.548;9.730;2023-04-23T14:45:45;1.05;;;0.73;;
16735;SDS011;17990;49.548;9.730;2023-04-23T14:48:14;1.10;;;0.60;;
16735;SDS011;17990;49.548;9.730;2023-04-23T14:50:42;1.40;;;0.68;;
16735;SDS011;17990;49.548;9.730;2023-04-23T14:53:09;1.05;;;0.50;;
16735;SDS011;17990;49.548;9.730;2023-04-23T14:55:37;0.95;;;0.65;;
16735;SDS011;17990;49.548;9.730;2023-04-23T14:58:07;1.85;;;0.65;;